Time;durP1;ratioP1;P1;durP2;ratioP2;P2;SDS_P1;SDS_P2;PMS_P1;PMS_P2;Temp;Humidity;BMP_temperature;BMP_pressure;BME280_temperature;BME280_humidity;BME280_pressure;Samples;Min_cycle;Max_cycle;Signal;HPM_P1;HPM_P2
2023/06/09 00:00:59;;;;;;;9.55;4.68;;;14.70;94.20;;;;;;5024148;28;20304;-89
2023/06/09 00:03:27;;;;;;;8.30;4.80;;;14.70;94.40;;;;;;5025747;28;20251;-88
2023/06/09 00:05:53;;;;;;;9.43;4.83;;;14.70;94.70;;;;;;5023672;28;20229;-88
2023/06/09 00:08:21;;;;;;;8.10;5.03;;;14.70;94.70;;;;;;5022323;28;20239;-89
2023/06/09 00:10:48;;;;;;;6.20;4.25;;;14.70;94.80;;;;;;5028400;28;20258;-88
2023/06/09 00:13:15;;;;;;;8.03;4.70;;;14.60;94.80;;;;;;5009331;28;20228;-87
2023/06/09 00:15:42;;;;;;;8.70;5.03;;;14.60;95.00;;;;;;5007923;28;20225;-89
2023/06/09 00:18:09;;;;;;;6.30;4.32;;;14.70;95.00;;;;;;5010313;28;20227;-87
2023/06/09 00:20:38;;;;;;;8.13;4.43;;;14.60;95.10;;;;;;5028583;28;20232;-88
2023/06/09 00:23:05;;;;;;;7.37;4.67;;;14.60;95.60;;;;;;5022661;28;20220;-89
2023/06/09 00:25:32;;;;;;;9.30;5.00;;;14.50;95.60;;;;;;5019440;28;20225;-88
2023/06/09 00:28:00;;;;;;;9.35;4.88;;;14.50;95.90;;;;;;5025623;28;20228;-88
2023/06/09 00:30:27;;;;;;;8.63;4.20;;;14.40;96.20;;;;;;5026906;28;20245;-89
2023/06/09 00:32:54;;;;;;;6.77;4.20;;;14.40;96.30;;;;;;5029203;28;20702;-88
2023/06/09 00:35:22;;;;;;;7.77;4.60;;;14.30;96.40;;;;;;5016564;28;20236;-89
2023/06/09 00:37:50;;;;;;;7.17;4.83;;;14.30;96.50;;;;;;5025025;28;20243;-89
2023/06/09 00:40:20;;;;;;;9.93;4.97;;;14.20;96.80;;;;;;5025794;28;20304;-87
2023/06/09 00:42:47;;;;;;;7.77;5.07;;;14.10;96.70;;;;;;5026728;28;20225;-86
2023/06/09 00:45:15;;;;;;;6.60;4.27;;;14.00;96.90;;;;;;5029469;28;20230;-88
2023/06/09 00:47:42;;;;;;;12.53;4.93;;;14.00;97.10;;;;;;5023648;28;20251;-88
2023/06/09 00:50:12;;;;;;;7.80;4.93;;;13.90;97.20;;;;;;5047697;28;20213;-89
2023/06/09 00:52:40;;;;;;;9.57;4.50;;;13.80;97.50;;;;;;5020879;28;20213;-89
2023/06/09 00:55:12;;;;;;;7.90;5.13;;;13.80;97.50;;;;;;5041739;28;20229;-89
2023/06/09 00:57:39;;;;;;;8.43;5.10;;;13.80;97.60;;;;;;5039822;28;20235;-89
2023/06/09 01:00:10;;;;;;;9.10;5.33;;;13.70;97.60;;;;;;5021053;28;20311;-88
2023/06/09 01:02:38;;;;;;;9.73;4.97;;;13.70;97.90;;;;;;5018854;28;20319;-88
2023/06/09 01:05:06;;;;;;;7.83;4.77;;;13.70;98.00;;;;;;5023624;28;20311;-89
2023/06/09 01:07:41;;;;;;;9.97;4.43;;;13.60;98.30;;;;;;5022197;28;20263;-89
2023/06/09 01:10:16;;;;;;;7.10;5.00;;;13.60;98.70;;;;;;5025612;28;20302;-89
2023/06/09 01:12:51;;;;;;;8.03;4.80;;;13.60;99.00;;;;;;5016773;28;20248;-89
2023/06/09 01:15:23;;;;;;;9.27;5.03;;;13.60;99.00;;;;;;5020262;28;20221;-89
2023/06/09 01:17:54;;;;;;;8.17;4.67;;;13.50;98.90;;;;;;5036505;28;20897;-89
2023/06/09 01:20:31;;;;;;;6.63;4.50;;;13.40;99.00;;;;;;5027785;28;20232;-89
2023/06/09 01:23:08;;;;;;;9.00;4.57;;;13.40;99.30;;;;;;5027365;28;20226;-89
2023/06/09 01:25:41;;;;;;;7.13;4.23;;;13.30;99.20;;;;;;5000670;28;20750;-89
2023/06/09 01:28:11;;;;;;;8.77;5.30;;;13.30;99.30;;;;;;5032986;28;20225;-88
2023/06/09 01:30:41;;;;;;;8.50;5.13;;;13.20;99.50;;;;;;5018589;28;20304;-89
2023/06/09 01:33:10;;;;;;;8.70;4.87;;;13.20;99.70;;;;;;5020101;28;20247;-88
2023/06/09 01:35:39;;;;;;;8.77;5.23;;;13.10;99.80;;;;;;5034551;28;20799;-88
2023/06/09 01:38:07;;;;;;;7.07;4.73;;;13.10;99.90;;;;;;5019294;28;20245;-89
2023/06/09 01:40:35;;;;;;;7.70;5.00;;;13.10;99.90;;;;;;5026014;28;20256;-88
2023/06/09 01:43:04;;;;;;;7.50;4.63;;;13.00;99.90;;;;;;5020696;28;20231;-87
2023/06/09 01:45:31;;;;;;;8.97;5.37;;;13.00;99.90;;;;;;5024235;28;20306;-88
2023/06/09 01:47:58;;;;;;;9.70;4.90;;;13.00;99.90;;;;;;5029666;28;20947;-89
2023/06/09 01:50:34;;;;;;;6.73;5.07;;;12.90;99.90;;;;;;5020837;28;20225;-88
2023/06/09 01:53:05;;;;;;;9.03;5.30;;;12.90;99.90;;;;;;5020790;28;20220;-87
2023/06/09 01:55:37;;;;;;;6.83;5.10;;;12.90;99.90;;;;;;5030074;28;20219;-88
2023/06/09 01:58:13;;;;;;;8.13;5.40;;;12.80;99.90;;;;;;5026173;28;20297;-87
2023/06/09 02:00:45;;;;;;;8.43;5.03;;;12.80;99.90;;;;;;5029530;28;20230;-88
2023/06/09 02:03:15;;;;;;;7.77;4.97;;;12.80;99.90;;;;;;5024201;28;20954;-89
2023/06/09 02:05:44;;;;;;;7.70;4.37;;;12.80;99.90;;;;;;5026429;28;20223;-88
2023/06/09 02:08:12;;;;;;;8.00;5.33;;;12.80;99.90;;;;;;5028802;28;20224;-89
2023/06/09 02:10:40;;;;;;;8.20;5.30;;;12.70;99.90;;;;;;5026164;28;20223;-89
2023/06/09 02:13:15;;;;;;;10.30;5.70;;;12.70;99.90;;;;;;5025405;28;20238;-89
2023/06/09 02:15:44;;;;;;;9.47;5.00;;;12.70;99.90;;;;;;5027762;28;20346;-89
2023/06/09 02:18:11;;;;;;;8.90;5.70;;;12.70;99.90;;;;;;5022074;28;20309;-89
2023/06/09 02:20:40;;;;;;;8.43;5.10;;;12.60;99.90;;;;;;5049827;28;20260;-88
2023/06/09 02:23:07;;;;;;;6.20;5.20;;;12.60;99.90;;;;;;5044994;28;20231;-88
2023/06/09 02:25:34;;;;;;;7.87;5.37;;;12.60;99.90;;;;;;5022607;28;20222;-89
2023/06/09 02:28:03;;;;;;;7.97;5.70;;;12.50;99.90;;;;;;5028477;28;20241;-89
2023/06/09 02:30:31;;;;;;;9.03;5.77;;;12.50;99.90;;;;;;5028193;28;20230;-88
2023/06/09 02:33:00;;;;;;;7.90;5.60;;;12.50;99.90;;;;;;5023757;28;20227;-88
2023/06/09 02:35:27;;;;;;;7.80;5.60;;;12.50;99.90;;;;;;5026179;28;20225;-89
2023/06/09 02:37:54;;;;;;;9.10;5.70;;;12.50;99.90;;;;;;5039727;28;20222;-89
2023/06/09 02:40:22;;;;;;;10.50;6.10;;;12.40;99.90;;;;;;5025720;28;20318;-89
2023/06/09 02:42:49;;;;;;;11.37;6.70;;;12.40;99.90;;;;;;5027043;28;20220;-89
2023/06/09 02:45:16;;;;;;;8.70;5.90;;;12.40;99.90;;;;;;5021245;28;20239;-89
2023/06/09 02:47:45;;;;;;;8.60;5.73;;;12.40;99.90;;;;;;5023582;28;20958;-90
2023/06/09 02:50:12;;;;;;;7.43;5.57;;;12.30;99.90;;;;;;5021703;28;20254;-90
2023/06/09 02:52:40;;;;;;;8.17;5.87;;;12.40;99.90;;;;;;5024692;28;20220;-89
2023/06/09 02:55:08;;;;;;;11.33;6.47;;;12.30;99.90;;;;;;5022184;28;20220;-90
2023/06/09 02:57:38;;;;;;;12.47;6.57;;;12.30;99.90;;;;;;5025616;28;20240;-89
2023/06/09 03:00:08;;;;;;;11.80;6.80;;;12.30;99.90;;;;;;5023857;28;20219;-89
2023/06/09 03:02:36;;;;;;;11.87;6.70;;;12.30;99.90;;;;;;5024395;28;20222;-90
2023/06/09 03:05:06;;;;;;;8.13;5.97;;;12.20;99.90;;;;;;5025071;28;20238;-90
2023/06/09 03:07:32;;;;;;;10.27;6.37;;;12.20;99.90;;;;;;5024204;28;20219;-89
2023/06/09 03:10:00;;;;;;;8.90;6.00;;;12.20;99.90;;;;;;5045821;28;20235;-89
2023/06/09 03:12:28;;;;;;;10.20;5.93;;;12.20;99.90;;;;;;5021271;28;20228;-89
2023/06/09 03:14:55;;;;;;;10.27;6.30;;;12.20;99.90;;;;;;5026567;28;20213;-89
2023/06/09 03:17:22;;;;;;;11.97;7.17;;;12.20;99.90;;;;;;5019190;28;20224;-88
2023/06/09 03:19:51;;;;;;;9.40;6.83;;;12.20;99.90;;;;;;5020496;28;20219;-87
2023/06/09 03:22:20;;;;;;;9.93;6.27;;;12.20;99.90;;;;;;5024962;28;20517;-88
2023/06/09 03:24:48;;;;;;;10.63;6.50;;;12.20;99.90;;;;;;5020405;28;20228;-86
2023/06/09 03:27:15;;;;;;;9.20;6.27;;;12.20;99.90;;;;;;5028150;28;20226;-87
2023/06/09 03:29:43;;;;;;;10.47;6.50;;;12.20;99.90;;;;;;5033083;28;20691;-87
2023/06/09 03:32:10;;;;;;;10.17;6.73;;;12.20;99.90;;;;;;5029886;28;20219;-89
2023/06/09 03:34:36;;;;;;;8.67;6.23;;;12.20;99.90;;;;;;5019809;28;20216;-87
2023/06/09 03:37:04;;;;;;;9.67;6.50;;;12.20;99.90;;;;;;5028589;28;20855;-89
2023/06/09 03:39:33;;;;;;;10.77;6.80;;;12.20;99.90;;;;;;5032632;28;20254;-89
2023/06/09 03:41:59;;;;;;;11.07;7.10;;;12.20;99.90;;;;;;5029819;28;20220;-89
2023/06/09 03:44:28;;;;;;;14.43;7.47;;;12.20;99.90;;;;;;5046502;28;20277;-88
2023/06/09 03:46:55;;;;;;;12.40;7.47;;;12.30;99.90;;;;;;5030350;28;20519;-89
2023/06/09 03:49:22;;;;;;;10.57;6.73;;;12.30;99.90;;;;;;5026171;28;20317;-89
2023/06/09 03:51:50;;;;;;;11.80;6.77;;;12.30;99.90;;;;;;5027610;28;20221;-89
2023/06/09 03:54:16;;;;;;;9.03;6.07;;;12.30;99.90;;;;;;5023463;28;20223;-89
2023/06/09 03:56:45;;;;;;;14.07;6.53;;;12.30;99.90;;;;;;5032988;28;21084;-89
2023/06/09 03:59:12;;;;;;;12.00;7.10;;;12.30;99.90;;;;;;5031516;28;20235;-89
2023/06/09 04:01:40;;;;;;;10.57;6.77;;;12.30;99.90;;;;;;5026289;28;20244;-89
2023/06/09 04:04:09;;;;;;;11.90;7.40;;;12.40;99.90;;;;;;5044063;28;20218;-89
2023/06/09 04:06:37;;;;;;;11.07;7.07;;;12.40;99.90;;;;;;5036201;28;20294;-89
2023/06/09 04:09:05;;;;;;;11.77;6.90;;;12.40;99.90;;;;;;5028829;28;20230;-90
2023/06/09 04:11:32;;;;;;;8.63;6.30;;;12.50;99.90;;;;;;5031015;28;20226;-90
2023/06/09 04:14:01;;;;;;;10.97;6.80;;;12.50;99.90;;;;;;5028944;28;20227;-90
2023/06/09 04:16:28;;;;;;;11.20;6.40;;;12.60;99.90;;;;;;5027587;28;20229;-89
2023/06/09 04:18:54;;;;;;;8.97;6.27;;;12.60;99.90;;;;;;5028376;28;20223;-89
2023/06/09 04:21:21;;;;;;;11.13;6.00;;;12.70;99.90;;;;;;5029988;28;20227;-89
2023/06/09 04:23:49;;;;;;;10.07;6.00;;;12.70;99.90;;;;;;5027944;28;20213;-89
2023/06/09 04:26:17;;;;;;;10.83;5.70;;;12.80;99.90;;;;;;5025586;28;20239;-91
2023/06/09 04:28:44;;;;;;;10.07;5.53;;;12.80;99.90;;;;;;5036444;28;20226;-89
2023/06/09 04:31:13;;;;;;;9.57;5.60;;;12.90;99.90;;;;;;5021452;28;20256;-89
2023/06/09 04:33:40;;;;;;;9.33;5.87;;;12.90;99.90;;;;;;5029442;28;20320;-90
2023/06/09 04:36:07;;;;;;;7.97;5.50;;;13.00;99.90;;;;;;5027706;28;20306;-89
2023/06/09 04:38:37;;;;;;;9.83;5.93;;;13.00;99.90;;;;;;5028695;28;20222;-89
2023/06/09 04:41:07;;;;;;;11.50;5.07;;;13.00;99.90;;;;;;5024512;28;20737;-90
2023/06/09 04:43:39;;;;;;;10.37;5.30;;;13.10;99.90;;;;;;5024631;28;20239;-90
2023/06/09 04:46:08;;;;;;;8.87;4.90;;;13.10;99.90;;;;;;5024354;28;20660;-89
2023/06/09 04:48:36;;;;;;;9.40;5.10;;;13.20;99.90;;;;;;5027171;28;20227;-89
2023/06/09 04:51:04;;;;;;;8.30;5.10;;;13.30;99.90;;;;;;5026424;28;20253;-90
2023/06/09 04:53:37;;;;;;;11.00;5.70;;;13.30;99.90;;;;;;5030548;28;20212;-89
2023/06/09 04:56:06;;;;;;;10.37;5.33;;;13.40;99.90;;;;;;5029122;28;20889;-89
2023/06/09 04:58:34;;;;;;;8.20;5.63;;;13.40;99.90;;;;;;5052887;28;20835;-89
2023/06/09 05:01:01;;;;;;;10.10;5.10;;;13.50;99.90;;;;;;5028734;28;20221;-89
2023/06/09 05:03:28;;;;;;;12.37;5.27;;;13.60;99.90;;;;;;5028931;28;20306;-88
2023/06/09 05:05:56;;;;;;;9.07;5.07;;;13.70;99.90;;;;;;5029413;28;20769;-89
2023/06/09 05:08:26;;;;;;;12.63;5.13;;;13.80;99.90;;;;;;5024902;28;20698;-90
2023/06/09 05:10:53;;;;;;;9.67;5.07;;;13.80;99.90;;;;;;5025029;28;20247;-89
2023/06/09 05:13:20;;;;;;;9.07;5.17;;;13.90;99.90;;;;;;5022918;28;20223;-90
2023/06/09 05:15:50;;;;;;;11.13;4.83;;;14.00;99.90;;;;;;5027427;28;20212;-89
2023/06/09 05:18:19;;;;;;;7.80;4.50;;;14.10;99.90;;;;;;5027677;28;20220;-89
2023/06/09 05:20:45;;;;;;;9.37;5.10;;;14.10;99.90;;;;;;5030393;28;20223;-89
2023/06/09 05:23:13;;;;;;;9.50;5.43;;;14.20;99.90;;;;;;5028745;28;20747;-90
2023/06/09 05:25:40;;;;;;;8.43;4.70;;;14.30;99.90;;;;;;5029392;28;20218;-88
2023/06/09 05:28:07;;;;;;;11.07;5.03;;;14.30;99.90;;;;;;5033002;28;20248;-92
2023/06/09 05:30:34;;;;;;;9.47;4.80;;;14.40;99.90;;;;;;5025841;28;20608;-91
2023/06/09 05:33:01;;;;;;;8.37;5.23;;;14.50;99.90;;;;;;5027825;28;20295;-93
2023/06/09 05:35:29;;;;;;;9.60;5.43;;;14.60;99.90;;;;;;5036873;28;20224;-94
2023/06/09 05:37:56;;;;;;;8.93;4.97;;;14.60;99.90;;;;;;5056659;28;20696;-93
2023/06/09 05:40:27;;;;;;;8.80;4.73;;;14.70;99.90;;;;;;5045193;28;20212;-94
2023/06/09 05:42:54;;;;;;;9.07;4.60;;;14.80;99.90;;;;;;5053466;28;20222;-95
2023/06/09 05:45:21;;;;;;;8.70;4.87;;;14.90;99.90;;;;;;5040283;28;20231;-92
2023/06/09 05:47:48;;;;;;;8.30;4.97;;;15.00;99.90;;;;;;5069456;28;20228;-92
2023/06/09 05:50:15;;;;;;;9.37;4.60;;;15.00;99.90;;;;;;5043572;28;20223;-94
2023/06/09 05:52:42;;;;;;;9.90;4.63;;;15.10;99.90;;;;;;5039048;28;20230;-94
2023/06/09 05:55:09;;;;;;;7.70;4.68;;;15.20;99.90;;;;;;5037592;28;20258;-96
2023/06/09 05:57:40;;;;;;;9.60;5.10;;;15.20;99.90;;;;;;5030760;28;20231;-94
2023/06/09 06:00:09;;;;;;;7.20;4.63;;;15.30;99.90;;;;;;5041196;28;20220;-94
2023/06/09 06:02:39;;;;;;;13.88;5.30;;;15.40;99.90;;;;;;5040142;28;20232;-92
2023/06/09 06:05:06;;;;;;;8.93;5.25;;;15.40;99.90;;;;;;5044347;28;20204;-93
2023/06/09 06:07:37;;;;;;;7.65;5.15;;;15.50;99.90;;;;;;5046131;28;20232;-93
2023/06/09 06:10:04;;;;;;;8.60;4.85;;;15.60;99.90;;;;;;5040725;28;20220;-94
2023/06/09 06:12:31;;;;;;;8.45;5.30;;;15.60;99.90;;;;;;5037037;28;20246;-92
2023/06/09 06:15:02;;;;;;;8.27;4.85;;;15.70;99.90;;;;;;5052386;28;20282;-93
2023/06/09 06:17:40;;;;;;;8.77;5.55;;;15.80;99.90;;;;;;5035939;28;20249;-92
2023/06/09 06:20:08;;;;;;;7.82;5.03;;;15.90;99.90;;;;;;5036702;28;20215;-93
2023/06/09 06:22:36;;;;;;;10.65;5.03;;;16.00;99.90;;;;;;5012147;28;20233;-93
2023/06/09 06:25:04;;;;;;;8.82;4.90;;;16.10;99.90;;;;;;5013941;28;20236;-93
2023/06/09 06:27:31;;;;;;;10.10;5.18;;;16.20;99.90;;;;;;5036535;28;20323;-93
2023/06/09 06:30:02;;;;;;;7.90;4.88;;;16.30;99.90;;;;;;5035842;28;20220;-93
2023/06/09 06:32:29;;;;;;;11.70;5.47;;;16.50;99.90;;;;;;5032202;28;20347;-92
2023/06/09 06:34:56;;;;;;;8.35;5.03;;;16.80;99.90;;;;;;5029028;28;20576;-92
2023/06/09 06:37:23;;;;;;;7.63;4.90;;;17.00;99.90;;;;;;5018448;28;20230;-92
2023/06/09 06:39:49;;;;;;;9.00;5.15;;;17.20;99.90;;;;;;5020436;28;20291;-91
2023/06/09 06:42:16;;;;;;;8.20;5.07;;;17.40;99.90;;;;;;5026162;28;20224;-92
2023/06/09 06:45:08;;;;;;;6.97;4.78;;;17.60;99.90;;;;;;5038328;28;20217;-93
2023/06/09 06:47:35;;;;;;;8.15;4.63;;;17.70;99.70;;;;;;5028368;28;20232;-92
2023/06/09 06:50:02;;;;;;;9.00;4.40;;;17.90;99.50;;;;;;5038764;28;20368;-92
2023/06/09 06:52:29;;;;;;;7.65;4.95;;;17.90;99.10;;;;;;5020652;28;20301;-92
2023/06/09 06:54:55;;;;;;;8.13;4.38;;;18.00;99.10;;;;;;5020801;28;20580;-91
2023/06/09 06:57:22;;;;;;;7.80;3.92;;;18.10;99.20;;;;;;5006858;28;20965;-93
2023/06/09 06:59:49;;;;;;;9.05;4.40;;;18.20;99.30;;;;;;5008682;28;20233;-93
2023/06/09 07:02:17;;;;;;;8.63;4.65;;;18.50;99.70;;;;;;5001407;28;20666;-92
2023/06/09 07:04:44;;;;;;;8.35;4.53;;;18.90;99.90;;;;;;5008787;28;20221;-93
2023/06/09 07:07:10;;;;;;;6.78;4.15;;;19.60;99.60;;;;;;5006452;28;20840;-92
2023/06/09 07:09:38;;;;;;;6.18;3.90;;;20.30;98.80;;;;;;5004947;28;20224;-92
2023/06/09 07:12:05;;;;;;;8.73;4.10;;;21.20;97.40;;;;;;5021411;28;20630;-92
2023/06/09 07:14:32;;;;;;;8.35;4.05;;;22.10;96.20;;;;;;5018934;28;20232;-93
2023/06/09 07:17:01;;;;;;;7.88;4.20;;;23.00;94.60;;;;;;5024526;28;20287;-93
2023/06/09 07:19:29;;;;;;;6.60;3.97;;;23.80;93.60;;;;;;5022396;28;20755;-93
2023/06/09 07:21:56;;;;;;;9.73;4.28;;;24.60;92.10;;;;;;5022333;28;20265;-94
2023/06/09 07:24:23;;;;;;;7.50;4.57;;;25.40;90.90;;;;;;5022863;28;20694;-93
2023/06/09 07:26:49;;;;;;;8.00;4.30;;;26.10;88.40;;;;;;5019693;28;20315;-93
2023/06/09 07:29:16;;;;;;;9.85;4.18;;;26.70;85.70;;;;;;5025402;28;20227;-94
2023/06/09 07:31:43;;;;;;;8.95;4.40;;;27.40;83.20;;;;;;5036262;28;20244;-93
2023/06/09 07:34:10;;;;;;;6.32;4.10;;;27.90;80.70;;;;;;5023328;28;20227;-93
2023/06/09 07:36:40;;;;;;;7.60;5.00;;;28.30;78.80;;;;;;5021883;28;20228;-93
2023/06/09 07:39:07;;;;;;;6.47;4.45;;;28.70;75.80;;;;;;5016118;28;20262;-93
2023/06/09 07:41:37;;;;;;;6.55;4.40;;;29.10;74.90;;;;;;5023713;28;20247;-93
2023/06/09 07:44:04;;;;;;;7.32;4.53;;;29.40;73.10;;;;;;5022325;28;20228;-94
2023/06/09 07:46:31;;;;;;;7.72;4.68;;;29.60;71.50;;;;;;5025943;28;20247;-95
2023/06/09 07:48:57;;;;;;;8.82;4.45;;;29.80;69.90;;;;;;5026324;28;20287;-93
2023/06/09 07:51:26;;;;;;;6.13;4.20;;;30.00;68.20;;;;;;5024719;28;20305;-94
2023/06/09 07:53:54;;;;;;;6.05;4.15;;;30.20;67.60;;;;;;5026641;28;20220;-93
2023/06/09 07:56:21;;;;;;;7.60;4.70;;;30.40;65.80;;;;;;5022610;28;20235;-94
2023/06/09 07:58:49;;;;;;;6.72;4.20;;;30.70;66.40;;;;;;5030110;28;20239;-93
2023/06/09 08:01:16;;;;;;;7.95;4.95;;;31.00;64.80;;;;;;5027976;28;20231;-93
2023/06/09 08:03:43;;;;;;;6.82;4.47;;;31.30;63.40;;;;;;5023218;28;20717;-94
2023/06/09 08:06:10;;;;;;;7.82;4.40;;;31.60;62.30;;;;;;5028340;28;20315;-94
2023/06/09 08:08:37;;;;;;;5.43;4.22;;;31.90;61.40;;;;;;5026811;28;20805;-93
2023/06/09 08:11:05;;;;;;;8.38;4.68;;;32.10;60.40;;;;;;5028995;28;20220;-94
2023/06/09 08:13:32;;;;;;;6.50;4.47;;;32.40;59.10;;;;;;5027910;28;20235;-94
2023/06/09 08:15:59;;;;;;;6.22;4.22;;;32.70;58.50;;;;;;5024257;28;20224;-94
2023/06/09 08:18:28;;;;;;;5.95;3.75;;;33.10;58.80;;;;;;5025461;28;20237;-94
2023/06/09 08:20:55;;;;;;;6.90;3.95;;;33.40;57.60;;;;;;5028666;28;20224;-95
2023/06/09 08:23:22;;;;;;;7.90;4.53;;;33.80;56.70;;;;;;5029832;28;20262;-94
2023/06/09 08:25:49;;;;;;;5.55;3.97;;;34.10;54.90;;;;;;5028114;28;20299;-94
2023/06/09 08:28:17;;;;;;;7.65;4.35;;;34.30;54.20;;;;;;5021778;28;20267;-94
2023/06/09 08:30:44;;;;;;;5.57;3.83;;;34.50;52.40;;;;;;5031071;28;20329;-95
2023/06/09 08:33:11;;;;;;;7.93;3.90;;;34.50;52.30;;;;;;5041135;28;20238;-94
2023/06/09 08:35:37;;;;;;;5.18;3.75;;;34.50;51.00;;;;;;5045764;28;20256;-94
2023/06/09 08:38:04;;;;;;;6.85;4.07;;;34.40;49.90;;;;;;5036907;28;20220;-95
2023/06/09 08:40:32;;;;;;;6.15;3.90;;;34.30;50.30;;;;;;5038491;28;20230;-94
2023/06/09 08:43:00;;;;;;;7.97;4.03;;;34.30;51.00;;;;;;5033791;28;20220;-92
2023/06/09 08:45:30;;;;;;;9.57;4.05;;;34.40;49.80;;;;;;5029771;28;20575;-92
2023/06/09 08:48:01;;;;;;;6.93;4.15;;;34.60;49.70;;;;;;5032930;28;20228;-93
2023/06/09 08:50:30;;;;;;;5.97;5.28;;;34.80;48.30;;;;;;5040540;28;20224;-92
2023/06/09 08:52:57;;;;;;;8.02;4.30;;;34.90;48.60;;;;;;5049917;28;20466;-92
2023/06/09 08:55:27;;;;;;;7.43;4.18;;;35.00;47.90;;;;;;5037817;28;20295;-93
2023/06/09 08:57:54;;;;;;;5.78;3.67;;;35.20;46.70;;;;;;5048866;28;20244;-94
2023/06/09 09:00:21;;;;;;;5.28;3.55;;;35.30;47.00;;;;;;5033372;28;20246;-95
2023/06/09 09:02:50;;;;;;;4.88;4.05;;;35.50;46.10;;;;;;5031180;28;20686;-94
2023/06/09 09:05:16;;;;;;;6.32;4.15;;;35.60;45.60;;;;;;5028610;28;20315;-94
2023/06/09 09:07:45;;;;;;;4.70;3.78;;;35.80;46.20;;;;;;5030943;28;20278;-94
2023/06/09 09:10:11;;;;;;;6.53;3.65;;;36.00;45.50;;;;;;5027501;28;20265;-94
2023/06/09 09:12:52;;;;;;;6.70;4.13;;;36.20;45.10;;;;;;5028429;28;20343;-94
2023/06/09 09:15:19;;;;;;;5.78;3.80;;;36.40;44.40;;;;;;5034248;28;20219;-94
2023/06/09 09:17:47;;;;;;;4.65;3.67;;;36.60;43.10;;;;;;5033797;28;20235;-94
2023/06/09 09:20:16;;;;;;;5.18;4.03;;;36.80;43.00;;;;;;5036770;28;20228;-94
2023/06/09 09:22:47;;;;;;;4.43;3.65;;;37.00;42.50;;;;;;5048950;28;20730;-94
2023/06/09 09:25:25;;;;;;;6.07;3.78;;;37.00;41.30;;;;;;5036534;28;20231;-94
2023/06/09 09:28:00;;;;;;;6.35;4.10;;;37.00;40.40;;;;;;5035270;28;20266;-95
2023/06/09 09:30:45;;;;;;;5.85;4.18;;;36.80;41.70;;;;;;5030434;28;20303;-94
2023/06/09 09:33:13;;;;;;;7.35;4.32;;;36.50;40.80;;;;;;5030805;28;20247;-94
2023/06/09 09:35:45;;;;;;;7.15;3.80;;;36.50;42.00;;;;;;5043295;28;20235;-94
2023/06/09 09:38:14;;;;;;;7.05;3.88;;;36.50;41.10;;;;;;5036463;28;20235;-94
2023/06/09 09:40:48;;;;;;;6.70;4.18;;;36.60;41.10;;;;;;5032496;28;20292;-94
2023/06/09 09:43:16;;;;;;;5.55;4.13;;;36.70;40.60;;;;;;5027083;28;20258;-94
2023/06/09 09:45:44;;;;;;;9.90;4.38;;;36.70;39.90;;;;;;5032166;28;20250;-95
2023/06/09 09:48:13;;;;;;;5.55;4.05;;;36.50;40.00;;;;;;5029650;28;20302;-94
2023/06/09 09:50:42;;;;;;;5.00;3.42;;;36.40;39.90;;;;;;5030149;28;20250;-95
2023/06/09 09:53:10;;;;;;;5.65;3.83;;;36.30;38.80;;;;;;5031125;28;20247;-95
2023/06/09 09:55:39;;;;;;;6.43;3.63;;;36.20;39.30;;;;;;5032964;28;20228;-95
2023/06/09 09:58:07;;;;;;;5.82;4.05;;;36.20;39.50;;;;;;5023807;28;20229;-94
2023/06/09 10:00:36;;;;;;;4.03;3.50;;;36.30;40.00;;;;;;5018454;28;20302;-94
2023/06/09 10:03:09;;;;;;;5.55;3.95;;;36.40;38.50;;;;;;5027646;28;20220;-94
2023/06/09 10:05:43;;;;;;;4.60;3.65;;;36.50;37.90;;;;;;5025049;28;20216;-95
2023/06/09 10:08:14;;;;;;;3.45;3.15;;;36.50;38.10;;;;;;5029996;28;20228;-94
2023/06/09 10:10:41;;;;;;;6.00;3.60;;;36.40;38.40;;;;;;5028145;28;20225;-94
2023/06/09 10:13:08;;;;;;;5.10;4.03;;;36.40;38.70;;;;;;5030332;28;20213;-94
2023/06/09 10:15:35;;;;;;;5.97;4.10;;;36.50;38.80;;;;;;5034057;28;20222;-95
2023/06/09 10:18:03;;;;;;;6.05;4.15;;;36.60;38.50;;;;;;5031390;28;20642;-94
2023/06/09 10:20:30;;;;;;;7.93;3.95;;;36.60;37.50;;;;;;5033249;28;20220;-95
2023/06/09 10:23:02;;;;;;;6.22;3.70;;;36.50;37.70;;;;;;5022891;28;20319;-93
2023/06/09 10:25:30;;;;;;;3.97;3.58;;;36.50;38.30;;;;;;5024606;28;20809;-94
2023/06/09 10:27:57;;;;;;;4.75;3.88;;;36.40;36.50;;;;;;5028793;28;20252;-94
2023/06/09 10:30:24;;;;;;;6.05;3.45;;;36.30;36.20;;;;;;5026113;28;20330;-95
2023/06/09 10:32:57;;;;;;;4.63;3.55;;;36.30;36.00;;;;;;5018753;28;20216;-93
2023/06/09 10:35:27;;;;;;;7.18;4.38;;;36.20;35.90;;;;;;5023700;28;20231;-93
2023/06/09 10:37:56;;;;;;;5.32;3.88;;;36.20;36.30;;;;;;5025539;28;20787;-93
2023/06/09 10:40:48;;;;;;;5.68;4.07;;;36.40;37.40;;;;;;5022978;28;20294;-95
2023/06/09 10:43:34;;;;;;;4.60;3.70;;;36.60;36.80;;;;;;5019249;28;20243;-93
2023/06/09 10:46:01;;;;;;;3.95;3.55;;;36.90;36.50;;;;;;5026169;28;20250;-93
2023/06/09 10:48:45;;;;;;;4.50;3.65;;;37.10;36.40;;;;;;5027073;28;20228;-93
2023/06/09 10:51:37;;;;;;;5.18;3.55;;;37.30;35.30;;;;;;5020719;28;20307;-94
2023/06/09 10:54:20;;;;;;;4.20;3.17;;;37.40;35.00;;;;;;5028285;28;20227;-93
2023/06/09 10:56:52;;;;;;;5.32;3.72;;;37.40;34.10;;;;;;5047635;28;20318;-94
2023/06/09 11:03:31;;;;;;;5.47;3.65;;;37.60;35.00;;;;;;4936882;28;20943;-95
2023/06/09 11:06:00;;;;;;;3.88;3.50;;;37.70;33.90;;;;;;5023095;28;20582;-94
2023/06/09 11:08:27;;;;;;;9.57;3.55;;;37.70;33.60;;;;;;5029181;28;20216;-94
2023/06/09 11:10:54;;;;;;;4.40;3.22;;;37.70;33.40;;;;;;5034038;28;20231;-94
2023/06/09 11:13:41;;;;;;;5.10;3.47;;;37.60;33.00;;;;;;5026637;28;20285;-94
2023/06/09 11:16:10;;;;;;;7.13;4.05;;;37.70;31.60;;;;;;5029028;28;20244;-94
2023/06/09 11:18:38;;;;;;;6.05;3.95;;;37.50;32.60;;;;;;5026410;28;20312;-94
2023/06/09 11:21:20;;;;;;;3.97;3.53;;;37.20;32.60;;;;;;5048999;28;20274;-94
2023/06/09 11:24:00;;;;;;;4.55;3.03;;;37.00;32.50;;;;;;5022056;28;20215;-94
2023/06/09 11:26:27;;;;;;;4.30;3.35;;;36.70;32.30;;;;;;5053585;28;20668;-94
2023/06/09 11:28:55;;;;;;;4.93;3.10;;;36.60;32.50;;;;;;5030052;28;20216;-94
2023/06/09 11:31:22;;;;;;;4.78;3.50;;;36.50;32.20;;;;;;5018462;28;20270;-94
2023/06/09 11:33:58;;;;;;;6.00;3.70;;;36.30;32.70;;;;;;5030113;28;20311;-94
2023/06/09 11:36:30;;;;;;;8.43;3.90;;;36.00;32.60;;;;;;5037753;28;20870;-94
2023/06/09 11:39:03;;;;;;;4.90;3.45;;;35.90;32.60;;;;;;5026480;28;20312;-94
2023/06/09 11:41:31;;;;;;;5.85;3.38;;;35.80;32.60;;;;;;5014815;28;21090;-94
2023/06/09 11:43:59;;;;;;;5.22;3.47;;;35.70;33.40;;;;;;5015895;28;20212;-95
2023/06/09 11:46:26;;;;;;;4.28;3.55;;;35.70;33.20;;;;;;5030754;28;20228;-95
2023/06/09 11:49:00;;;;;;;5.18;3.38;;;35.70;33.50;;;;;;5028245;28;20220;-94
2023/06/09 11:51:27;;;;;;;5.65;3.65;;;35.70;33.80;;;;;;5029768;28;20258;-94
2023/06/09 11:53:54;;;;;;;5.43;3.40;;;35.80;34.30;;;;;;5033210;28;20213;-94
2023/06/09 11:56:22;;;;;;;5.65;3.65;;;35.80;34.40;;;;;;5033167;28;20229;-95
2023/06/09 11:58:53;;;;;;;4.88;3.55;;;35.90;33.80;;;;;;5037169;28;20311;-94
2023/06/09 12:01:23;;;;;;;6.50;3.63;;;35.80;33.30;;;;;;5036479;28;20575;-95
2023/06/09 12:03:50;;;;;;;4.03;3.33;;;35.70;33.30;;;;;;5034247;28;20775;-95
2023/06/09 12:06:17;;;;;;;4.05;3.00;;;35.60;32.90;;;;;;5038947;28;20235;-94
2023/06/09 12:08:45;;;;;;;7.72;3.10;;;35.50;31.90;;;;;;5035292;28;20286;-95
2023/06/09 12:11:16;;;;;;;4.88;3.40;;;35.30;31.90;;;;;;5029076;28;20250;-95
2023/06/09 12:13:47;;;;;;;4.00;2.92;;;35.10;31.70;;;;;;5040207;28;20334;-95
2023/06/09 12:16:14;;;;;;;4.28;3.17;;;34.90;31.90;;;;;;5040213;28;20311;-95
2023/06/09 12:18:43;;;;;;;5.00;3.50;;;34.80;33.10;;;;;;5024482;28;20276;-94
2023/06/09 12:21:12;;;;;;;4.38;2.85;;;34.90;32.80;;;;;;5017718;28;20220;-94
2023/06/09 12:23:39;;;;;;;4.57;3.38;;;35.00;33.00;;;;;;5008923;28;20984;-94
2023/06/09 12:26:07;;;;;;;3.95;3.25;;;35.20;32.60;;;;;;5022823;28;20639;-94
2023/06/09 12:28:34;;;;;;;4.68;2.80;;;35.30;32.10;;;;;;5029280;28;20313;-92
2023/06/09 12:31:08;;;;;;;7.60;3.15;;;35.20;31.20;;;;;;5033159;28;20637;-94
2023/06/09 12:33:36;;;;;;;4.82;3.35;;;35.00;30.60;;;;;;5031140;28;20226;-93
2023/06/09 12:36:07;;;;;;;2.95;2.50;;;34.80;30.30;;;;;;5041849;28;20792;-94
2023/06/09 12:38:37;;;;;;;3.78;3.00;;;34.50;30.20;;;;;;5031902;28;20269;-93
2023/06/09 12:41:06;;;;;;;4.93;2.83;;;34.20;30.50;;;;;;5033914;28;20371;-93
2023/06/09 12:43:44;;;;;;;4.30;2.90;;;34.10;31.60;;;;;;5031756;28;20232;-94
2023/06/09 12:46:12;;;;;;;4.47;2.70;;;33.90;30.90;;;;;;5027449;28;20771;-93
2023/06/09 12:48:54;;;;;;;2.97;2.67;;;33.90;30.90;;;;;;5031469;28;20224;-93
2023/06/09 12:51:23;;;;;;;3.65;2.70;;;33.90;30.70;;;;;;5033736;28;20239;-95
2023/06/09 12:53:51;;;;;;;3.97;2.92;;;33.80;30.90;;;;;;5036011;28;20299;-95
2023/06/09 12:56:18;;;;;;;3.80;2.90;;;33.90;30.60;;;;;;5042114;28;20219;-94
2023/06/09 12:58:45;;;;;;;3.55;3.08;;;33.90;30.40;;;;;;5038376;28;20224;-95